Terminal Aerodrome Forecast
Issued by NWS Kansas City/Pleasant Hill, MO

Home | Current Version | Previous Version | Text Only | Print | Product List | Glossary On
Versions: 1 2 3 4 5 6 7 8 9 10 11 12
000
FTUS43 KEAX 272300
TAFMCI
TAF
KMCI 272324Z 2800/2824 33013G23KT P6SM FEW060 FEW250
     FM280100 36006KT P6SM SKC
      TEMPO 2810/2813 5SM BR
     FM281500 35009KT P6SM SCT035=

USA.gov is the U.S. government's official web portal to all federal, state and local government web resources and services.